Alexander 3 — SW6137 — position and weather

sailwx.info

Track history (hours):
 
Tides and Currents Weather Stations Pressure Air Temp Water Temp Dewpoint Dewpoint Depression Visibility Wind Speed Wind Dir Waves Ship Positions

Alexander 3

Last reported at 2018-Jun-19 10:57 UTC. Time now 2018-Jun-19 16:22 UTC.
Position N 37°56' E 023°37'.

Length 28 m; draft 5.6 m.

Type: Tug. MMSI: 240733000.

Date/timePositionNaut miles runAvg speedWind from/ knotsBaromVisibWave heightAir tempDewpointWater temp
2018-Jun-19 10:57N 37°56' E 023°37'1 2.4
2018-Jun-19 10:30N 37°57' E 023°36'1 1.8
2018-Jun-19 10:01N 37°57' E 023°35'2 3.2
2018-Jun-19 09:30N 37°56' E 023°35'2 3.4
2018-Jun-19 09:00N 37°57' E 023°35'1 1.8
2018-Jun-19 08:31N 37°57' E 023°36'0 0.4
2018-Jun-19 08:00N 37°57' E 023°37'0 0.0
2018-Jun-19 07:30N 37°57' E 023°37'0 0.0
2018-Jun-19 07:00N 37°57' E 023°37'0 0.0
2018-Jun-19 06:30N 37°57' E 023°37'0 0.0
2018-Jun-19 06:00N 37°57' E 023°37'0 0.0
2018-Jun-19 05:31N 37°57' E 023°37'1 2.1
2018-Jun-19 05:01N 37°57' E 023°35'0 1.0
2018-Jun-19 04:30N 37°57' E 023°35'2 3.1
2018-Jun-19 04:01N 37°55' E 023°35'2 4.1
2018-Jun-19 03:30N 37°56' E 023°37'0 0.0
2018-Jun-19 03:00N 37°56' E 023°37'0 0.0
2018-Jun-19 02:30N 37°56' E 023°37'0 0.0
2018-Jun-18 10:54N 37°56' E 023°37'1 1.5
2018-Jun-18 10:30N 37°56' E 023°37'1 2.1
2018-Jun-18 10:00N 37°57' E 023°37'0 0.0
2018-Jun-18 09:30N 37°57' E 023°37'0 0.0
2018-Jun-18 09:00N 37°57' E 023°37'0 0.0
2018-Jun-18 08:30N 37°57' E 023°37'0 0.0
2018-Jun-18 08:00N 37°57' E 023°37'0 0.0
2018-Jun-18 07:30N 37°57' E 023°37'1 2.2
2018-Jun-18 07:00N 37°57' E 023°35'1 1.3
2018-Jun-18 06:30N 37°57' E 023°35'1 2.2
2018-Jun-18 06:00N 37°56' E 023°35'2 3.5
2018-Jun-18 05:30N 37°57' E 023°35'0 0.2
2018-Jun-18 05:00N 37°57' E 023°35'0 1.0
2018-Jun-18 04:30N 37°57' E 023°35'2 3.1
2018-Jun-18 04:00N 37°56' E 023°37'1 1.2
2018-Jun-18 03:30N 37°56' E 023°37'0 0.0
2018-Jun-18 03:00N 37°56' E 023°37'0 0.0
2018-Jun-18 02:30N 37°56' E 023°37'  
2018-Jun-15 14:02N 37°56' E 023°37'0 0.0
2018-Jun-15 14:00N 37°56' E 023°37'4 7.2
2018-Jun-15 13:30N 37°57' E 023°33'510.4
2018-Jun-15 13:00N 38°02' E 023°30'0 0.1
2018-Jun-15 12:30N 38°02' E 023°30'0 0.0
2018-Jun-15 12:01N 38°02' E 023°30'0 0.0
2018-Jun-15 11:30N 38°02' E 023°30'0 0.0
2018-Jun-15 11:00N 38°02' E 023°30'0 0.0
2018-Jun-15 10:30N 38°02' E 023°30'0 0.0
2018-Jun-15 10:00N 38°02' E 023°30'0 0.0
2018-Jun-15 09:30N 38°02' E 023°30'0 0.0
2018-Jun-15 09:01N 38°02' E 023°30'0 0.0
2018-Jun-15 08:30N 38°02' E 023°30'0 0.0
2018-Jun-15 08:01N 38°02' E 023°30'0 0.0
2018-Jun-15 07:31N 38°02' E 023°30'0 0.0
2018-Jun-15 07:01N 38°02' E 023°30'0 0.0
2018-Jun-15 06:30N 38°02' E 023°30'0 0.0
2018-Jun-15 06:01N 38°02' E 023°30'2 3.8
2018-Jun-15 05:31N 38°02' E 023°33'2 4.4
2018-Jun-15 05:00N 38°01' E 023°35'0 0.0
2018-Jun-15 04:30N 38°01' E 023°36'0 0.0
2018-Jun-15 04:00N 38°01' E 023°36'0 0.0
2018-Jun-15 03:31N 38°01' E 023°35'0 0.0
2018-Jun-15 03:00N 38°01' E 023°35'0 0.0
2018-Jun-15 02:31N 38°01' E 023°35'0 0.0
2018-Jun-15 02:00N 38°01' E 023°35'0 0.0
2018-Jun-15 01:30N 38°01' E 023°35'0 0.0
2018-Jun-15 01:00N 38°01' E 023°36'0 0.0
2018-Jun-15 00:30N 38°01' E 023°36'0 0.0
2018-Jun-15 00:00N 38°01' E 023°36'0 0.0
2018-Jun-14 23:31N 38°01' E 023°36'0 0.0
2018-Jun-14 23:01N 38°01' E 023°36'0 0.0
2018-Jun-14 22:30N 38°01' E 023°36'0 0.0
2018-Jun-14 22:00N 38°01' E 023°36'0 0.0
2018-Jun-14 21:31N 38°01' E 023°35'0 0.0
2018-Jun-14 21:01N 38°01' E 023°36'0 0.0
2018-Jun-14 20:31N 38°01' E 023°36'0 0.0
2018-Jun-14 20:00N 38°01' E 023°35'0 0.0
2018-Jun-14 19:30N 38°01' E 023°36'0 0.0
2018-Jun-14 19:00N 38°01' E 023°36'0 0.0
2018-Jun-14 18:31N 38°01' E 023°36'0 0.0
2018-Jun-14 18:00N 38°01' E 023°35'0 0.0
2018-Jun-14 17:31N 38°01' E 023°35'0 0.0
2018-Jun-14 17:01N 38°01' E 023°35'0 0.0
2018-Jun-14 16:30N 38°01' E 023°35'0 0.0
2018-Jun-14 16:00N 38°01' E 023°36'0 0.0
2018-Jun-14 15:30N 38°01' E 023°35'0 0.0
2018-Jun-14 15:00N 38°01' E 023°35'0 0.0
2018-Jun-14 14:28N 38°01' E 023°35'0 0.0
2018-Jun-14 14:00N 38°01' E 023°35'0 0.0
2018-Jun-14 13:30N 38°01' E 023°35'0 0.0
2018-Jun-14 13:00N 38°01' E 023°35'0 0.0
2018-Jun-14 12:28N 38°01' E 023°35'0 0.0
2018-Jun-14 11:58N 38°01' E 023°35'0 0.0
2018-Jun-14 11:30N 38°01' E 023°35'0 0.0
2018-Jun-14 11:00N 38°01' E 023°35'0 0.0
2018-Jun-14 10:30N 38°01' E 023°35'0 0.0
2018-Jun-14 10:01N 38°01' E 023°35'0 0.0
2018-Jun-14 09:30N 38°01' E 023°35'0 0.0
2018-Jun-14 09:00N 38°01' E 023°35'0 0.0
2018-Jun-14 08:30N 38°01' E 023°35'0 0.0
2018-Jun-14 08:00N 38°01' E 023°35'0 0.0
2018-Jun-14 07:29N 38°01' E 023°35'0 0.0
2018-Jun-14 07:00N 38°01' E 023°35'0 0.0
2018-Jun-14 06:30N 38°01' E 023°35'0 0.2
2018-Jun-14 06:00N 38°01' E 023°36'1 2.4
2018-Jun-14 05:31N 38°01' E 023°34'3 5.0
2018-Jun-14 05:00N 37°59' E 023°33'1 2.3
2018-Jun-14 04:30N 37°57' E 023°33'2 3.8
2018-Jun-14 04:00N 37°57' E 023°36'2 3.3
2018-Jun-14 03:30N 37°56' E 023°37'0 0.0
2018-Jun-14 02:59N 37°56' E 023°37'0 0.0
2018-Jun-14 02:30N 37°56' E 023°37'0 0.5
2018-Jun-14 01:51N 37°56' E 023°38'1 2.4
2018-Jun-14 01:30N 37°56' E 023°36'1 1.7
2018-Jun-14 01:00N 37°57' E 023°36'0 0.0
2018-Jun-14 00:26N 37°57' E 023°36'0 0.0
2018-Jun-13 23:59N 37°57' E 023°36'0 0.0
2018-Jun-13 23:27N 37°57' E 023°36'0 0.0
2018-Jun-13 22:54N 37°57' E 023°36'0 0.0
2018-Jun-13 22:27N 37°57' E 023°36'0 0.0
2018-Jun-13 21:59N 37°57' E 023°36'0 0.0
2018-Jun-13 21:29N 37°57' E 023°36'1 1.3
2018-Jun-13 21:00N 37°57' E 023°35'1 1.3
2018-Jun-13 20:30N 37°57' E 023°35'1 1.3
2018-Jun-13 20:00N 37°57' E 023°35'2 4.1
2018-Jun-13 19:30N 37°56' E 023°37'0 0.0
2018-Jun-13 18:55N 37°56' E 023°37'0 0.0
2018-Jun-13 18:26N 37°56' E 023°37'0 0.0
2018-Jun-13 18:00N 37°56' E 023°37'0 0.0
2018-Jun-13 17:28N 37°56' E 023°37'0 0.0
2018-Jun-13 17:00N 37°56' E 023°37'0 0.0
2018-Jun-13 16:30N 37°56' E 023°37'3 6.0
2018-Jun-13 16:00N 37°57' E 023°34'4 8.0
2018-Jun-13 15:30N 38°01' E 023°35'0 0.9
2018-Jun-13 15:00N 38°01' E 023°35'2 4.6
2018-Jun-13 14:30N 37°60' E 023°33'2 4.9
2018-Jun-13 14:01N 37°58' E 023°34'2 4.7
2018-Jun-13 13:30N 37°57' E 023°37'0 0.0
2018-Jun-13 13:00N 37°57' E 023°37'0 0.0
2018-Jun-13 12:30N 37°57' E 023°37'0 0.0
2018-Jun-13 12:00N 37°57' E 023°37'0 0.0
2018-Jun-13 11:30N 37°57' E 023°37'0 0.0
2018-Jun-13 11:00N 37°57' E 023°37'0 0.0
2018-Jun-13 10:30N 37°57' E 023°37'0 0.0
2018-Jun-13 10:00N 37°57' E 023°37'0 0.0
2018-Jun-13 09:30N 37°57' E 023°37'0 0.0
2018-Jun-13 09:00N 37°57' E 023°37'0 0.0
2018-Jun-13 08:30N 37°57' E 023°37'0 0.0
2018-Jun-13 08:00N 37°57' E 023°37'0 0.0
2018-Jun-13 07:30N 37°57' E 023°37'0 0.0
2018-Jun-13 07:00N 37°57' E 023°37'0 0.0
2018-Jun-13 06:30N 37°57' E 023°37'0 0.0
2018-Jun-13 06:00N 37°57' E 023°37'1 2.3
2018-Jun-13 05:30N 37°57' E 023°35'1 1.2
2018-Jun-13 05:00N 37°57' E 023°35'1 1.0
2018-Jun-13 04:31N 37°57' E 023°35'1 1.8
2018-Jun-13 04:01N 37°57' E 023°36'0 0.7
2018-Jun-13 03:31N 37°57' E 023°36'2 3.5
2018-Jun-13 03:01N 37°56' E 023°37'0 0.0
2018-Jun-13 02:31N 37°56' E 023°37'0 0.0
2018-Jun-11 10:56N 37°56' E 023°37'2 3.5
2018-Jun-11 10:30N 37°57' E 023°36'0 0.1
2018-Jun-11 10:00N 37°57' E 023°36'0 0.0
2018-Jun-11 09:30N 37°57' E 023°36'0 0.0
2018-Jun-11 09:00N 37°57' E 023°36'0 0.0
2018-Jun-11 08:30N 37°57' E 023°36'0 0.0
2018-Jun-11 08:00N 37°57' E 023°36'0 0.0
2018-Jun-11 07:30N 37°57' E 023°36'0 0.0
2018-Jun-11 07:00N 37°57' E 023°36'0 0.0
2018-Jun-11 06:30N 37°57' E 023°36'0 0.0
2018-Jun-11 06:00N 37°57' E 023°36'1 1.6
2018-Jun-11 05:30N 37°57' E 023°35'0 0.3
2018-Jun-11 05:00N 37°57' E 023°35'0 0.7
2018-Jun-11 04:31N 37°57' E 023°36'1 1.6
2018-Jun-11 04:00N 37°57' E 023°35'1 1.7
2018-Jun-11 03:30N 37°57' E 023°36'2 3.1
2018-Jun-11 03:00N 37°56' E 023°37'0 0.0
2018-Jun-11 02:30N 37°56' E 023°37'0 0.0
2018-Jun-10 10:48N 37°56' E 023°37'0 0.0
2018-Jun-10 10:30N 37°56' E 023°37'2 3.2
2018-Jun-10 10:00N 37°57' E 023°36'1 1.3
2018-Jun-10 09:30N 37°57' E 023°37'0 0.0
2018-Jun-10 09:00N 37°57' E 023°37'0 0.0
2018-Jun-10 08:30N 37°57' E 023°37'0 0.0
2018-Jun-10 08:00N 37°57' E 023°37'0 0.0
2018-Jun-10 07:30N 37°57' E 023°37'0 0.0
2018-Jun-10 07:00N 37°57' E 023°37'0 0.0
2018-Jun-10 06:30N 37°57' E 023°37'0 0.3
2018-Jun-10 06:00N 37°58' E 023°36'0 0.5
2018-Jun-10 05:30N 37°57' E 023°37'1 1.2
2018-Jun-10 05:00N 37°57' E 023°36'1 1.3
2018-Jun-10 04:31N 37°57' E 023°35'2 3.3
2018-Jun-10 04:00N 37°56' E 023°37'1 1.7
2018-Jun-10 03:30N 37°56' E 023°38'0 0.0
2018-Jun-10 03:00N 37°56' E 023°38'  
Track history (hours):
 
Tides and Currents Weather Stations Pressure Air Temp Water Temp Dewpoint Dewpoint Depression Visibility Wind Speed Wind Dir Waves Ship Positions

Alexander 3

Last reported at 2018-Jun-19 10:57 UTC. Time now 2018-Jun-19 16:22 UTC.
Position N 37°56' E 023°37'.

Length 28 m; draft 5.6 m.

Type: Tug. MMSI: 240733000.

Date/timePositionNaut miles runAvg speedWind from/ knotsBaromVisibWave heightAir tempDewpointWater temp
2018-Jun-19 10:57N 37°56' E 023°37'1 2.4
2018-Jun-19 10:30N 37°57' E 023°36'1 1.8
2018-Jun-19 10:01N 37°57' E 023°35'2 3.2
2018-Jun-19 09:30N 37°56' E 023°35'2 3.4
2018-Jun-19 09:00N 37°57' E 023°35'1 1.8
2018-Jun-19 08:31N 37°57' E 023°36'0 0.4
2018-Jun-19 08:00N 37°57' E 023°37'0 0.0
2018-Jun-19 07:30N 37°57' E 023°37'0 0.0
2018-Jun-19 07:00N 37°57' E 023°37'0 0.0
2018-Jun-19 06:30N 37°57' E 023°37'0 0.0
2018-Jun-19 06:00N 37°57' E 023°37'0 0.0
2018-Jun-19 05:31N 37°57' E 023°37'1 2.1
2018-Jun-19 05:01N 37°57' E 023°35'0 1.0
2018-Jun-19 04:30N 37°57' E 023°35'2 3.1
2018-Jun-19 04:01N 37°55' E 023°35'2 4.1
2018-Jun-19 03:30N 37°56' E 023°37'0 0.0
2018-Jun-19 03:00N 37°56' E 023°37'0 0.0
2018-Jun-19 02:30N 37°56' E 023°37'0 0.0
2018-Jun-18 10:54N 37°56' E 023°37'1 1.5
2018-Jun-18 10:30N 37°56' E 023°37'1 2.1
2018-Jun-18 10:00N 37°57' E 023°37'0 0.0
2018-Jun-18 09:30N 37°57' E 023°37'0 0.0
2018-Jun-18 09:00N 37°57' E 023°37'0 0.0
2018-Jun-18 08:30N 37°57' E 023°37'0 0.0
2018-Jun-18 08:00N 37°57' E 023°37'0 0.0
2018-Jun-18 07:30N 37°57' E 023°37'1 2.2
2018-Jun-18 07:00N 37°57' E 023°35'1 1.3
2018-Jun-18 06:30N 37°57' E 023°35'1 2.2
2018-Jun-18 06:00N 37°56' E 023°35'2 3.5
2018-Jun-18 05:30N 37°57' E 023°35'0 0.2
2018-Jun-18 05:00N 37°57' E 023°35'0 1.0
2018-Jun-18 04:30N 37°57' E 023°35'2 3.1
2018-Jun-18 04:00N 37°56' E 023°37'1 1.2
2018-Jun-18 03:30N 37°56' E 023°37'0 0.0
2018-Jun-18 03:00N 37°56' E 023°37'0 0.0
2018-Jun-18 02:30N 37°56' E 023°37'  
2018-Jun-15 14:02N 37°56' E 023°37'0 0.0
2018-Jun-15 14:00N 37°56' E 023°37'4 7.2
2018-Jun-15 13:30N 37°57' E 023°33'510.4
2018-Jun-15 13:00N 38°02' E 023°30'0 0.1
2018-Jun-15 12:30N 38°02' E 023°30'0 0.0
2018-Jun-15 12:01N 38°02' E 023°30'0 0.0
2018-Jun-15 11:30N 38°02' E 023°30'0 0.0
2018-Jun-15 11:00N 38°02' E 023°30'0 0.0
2018-Jun-15 10:30N 38°02' E 023°30'0 0.0
2018-Jun-15 10:00N 38°02' E 023°30'0 0.0
2018-Jun-15 09:30N 38°02' E 023°30'0 0.0
2018-Jun-15 09:01N 38°02' E 023°30'0 0.0
2018-Jun-15 08:30N 38°02' E 023°30'0 0.0
2018-Jun-15 08:01N 38°02' E 023°30'0 0.0
2018-Jun-15 07:31N 38°02' E 023°30'0 0.0
2018-Jun-15 07:01N 38°02' E 023°30'0 0.0
2018-Jun-15 06:30N 38°02' E 023°30'0 0.0
2018-Jun-15 06:01N 38°02' E 023°30'2 3.8
2018-Jun-15 05:31N 38°02' E 023°33'2 4.4
2018-Jun-15 05:00N 38°01' E 023°35'0 0.0
2018-Jun-15 04:30N 38°01' E 023°36'0 0.0
2018-Jun-15 04:00N 38°01' E 023°36'0 0.0
2018-Jun-15 03:31N 38°01' E 023°35'0 0.0
2018-Jun-15 03:00N 38°01' E 023°35'0 0.0
2018-Jun-15 02:31N 38°01' E 023°35'0 0.0
2018-Jun-15 02:00N 38°01' E 023°35'0 0.0
2018-Jun-15 01:30N 38°01' E 023°35'0 0.0
2018-Jun-15 01:00N 38°01' E 023°36'0 0.0
2018-Jun-15 00:30N 38°01' E 023°36'0 0.0
2018-Jun-15 00:00N 38°01' E 023°36'0 0.0
2018-Jun-14 23:31N 38°01' E 023°36'0 0.0
2018-Jun-14 23:01N 38°01' E 023°36'0 0.0
2018-Jun-14 22:30N 38°01' E 023°36'0 0.0
2018-Jun-14 22:00N 38°01' E 023°36'0 0.0
2018-Jun-14 21:31N 38°01' E 023°35'0 0.0
2018-Jun-14 21:01N 38°01' E 023°36'0 0.0
2018-Jun-14 20:31N 38°01' E 023°36'0 0.0
2018-Jun-14 20:00N 38°01' E 023°35'0 0.0
2018-Jun-14 19:30N 38°01' E 023°36'0 0.0
2018-Jun-14 19:00N 38°01' E 023°36'0 0.0
2018-Jun-14 18:31N 38°01' E 023°36'0 0.0
2018-Jun-14 18:00N 38°01' E 023°35'0 0.0
2018-Jun-14 17:31N 38°01' E 023°35'0 0.0
2018-Jun-14 17:01N 38°01' E 023°35'0 0.0
2018-Jun-14 16:30N 38°01' E 023°35'0 0.0
2018-Jun-14 16:00N 38°01' E 023°36'0 0.0
2018-Jun-14 15:30N 38°01' E 023°35'0 0.0
2018-Jun-14 15:00N 38°01' E 023°35'0 0.0
2018-Jun-14 14:28N 38°01' E 023°35'0 0.0
2018-Jun-14 14:00N 38°01' E 023°35'0 0.0
2018-Jun-14 13:30N 38°01' E 023°35'0 0.0
2018-Jun-14 13:00N 38°01' E 023°35'0 0.0
2018-Jun-14 12:28N 38°01' E 023°35'0 0.0
2018-Jun-14 11:58N 38°01' E 023°35'0 0.0
2018-Jun-14 11:30N 38°01' E 023°35'0 0.0
2018-Jun-14 11:00N 38°01' E 023°35'0 0.0
2018-Jun-14 10:30N 38°01' E 023°35'0 0.0
2018-Jun-14 10:01N 38°01' E 023°35'0 0.0
2018-Jun-14 09:30N 38°01' E 023°35'0 0.0
2018-Jun-14 09:00N 38°01' E 023°35'0 0.0
2018-Jun-14 08:30N 38°01' E 023°35'0 0.0
2018-Jun-14 08:00N 38°01' E 023°35'0 0.0
2018-Jun-14 07:29N 38°01' E 023°35'0 0.0
2018-Jun-14 07:00N 38°01' E 023°35'0 0.0
2018-Jun-14 06:30N 38°01' E 023°35'0 0.2
2018-Jun-14 06:00N 38°01' E 023°36'1 2.4
2018-Jun-14 05:31N 38°01' E 023°34'3 5.0
2018-Jun-14 05:00N 37°59' E 023°33'1 2.3
2018-Jun-14 04:30N 37°57' E 023°33'2 3.8
2018-Jun-14 04:00N 37°57' E 023°36'2 3.3
2018-Jun-14 03:30N 37°56' E 023°37'0 0.0
2018-Jun-14 02:59N 37°56' E 023°37'0 0.0
2018-Jun-14 02:30N 37°56' E 023°37'0 0.5
2018-Jun-14 01:51N 37°56' E 023°38'1 2.4
2018-Jun-14 01:30N 37°56' E 023°36'1 1.7
2018-Jun-14 01:00N 37°57' E 023°36'0 0.0
2018-Jun-14 00:26N 37°57' E 023°36'0 0.0
2018-Jun-13 23:59N 37°57' E 023°36'0 0.0
2018-Jun-13 23:27N 37°57' E 023°36'0 0.0
2018-Jun-13 22:54N 37°57' E 023°36'0 0.0
2018-Jun-13 22:27N 37°57' E 023°36'0 0.0
2018-Jun-13 21:59N 37°57' E 023°36'0 0.0
2018-Jun-13 21:29N 37°57' E 023°36'1 1.3
2018-Jun-13 21:00N 37°57' E 023°35'1 1.3
2018-Jun-13 20:30N 37°57' E 023°35'1 1.3
2018-Jun-13 20:00N 37°57' E 023°35'2 4.1
2018-Jun-13 19:30N 37°56' E 023°37'0 0.0
2018-Jun-13 18:55N 37°56' E 023°37'0 0.0
2018-Jun-13 18:26N 37°56' E 023°37'0 0.0
2018-Jun-13 18:00N 37°56' E 023°37'0 0.0
2018-Jun-13 17:28N 37°56' E 023°37'0 0.0
2018-Jun-13 17:00N 37°56' E 023°37'0 0.0
2018-Jun-13 16:30N 37°56' E 023°37'3 6.0
2018-Jun-13 16:00N 37°57' E 023°34'4 8.0
2018-Jun-13 15:30N 38°01' E 023°35'0 0.9
2018-Jun-13 15:00N 38°01' E 023°35'2 4.6
2018-Jun-13 14:30N 37°60' E 023°33'2 4.9
2018-Jun-13 14:01N 37°58' E 023°34'2 4.7
2018-Jun-13 13:30N 37°57' E 023°37'0 0.0
2018-Jun-13 13:00N 37°57' E 023°37'0 0.0
2018-Jun-13 12:30N 37°57' E 023°37'0 0.0
2018-Jun-13 12:00N 37°57' E 023°37'0 0.0
2018-Jun-13 11:30N 37°57' E 023°37'0 0.0
2018-Jun-13 11:00N 37°57' E 023°37'0 0.0
2018-Jun-13 10:30N 37°57' E 023°37'0 0.0
2018-Jun-13 10:00N 37°57' E 023°37'0 0.0
2018-Jun-13 09:30N 37°57' E 023°37'0 0.0
2018-Jun-13 09:00N 37°57' E 023°37'0 0.0
2018-Jun-13 08:30N 37°57' E 023°37'0 0.0
2018-Jun-13 08:00N 37°57' E 023°37'0 0.0
2018-Jun-13 07:30N 37°57' E 023°37'0 0.0
2018-Jun-13 07:00N 37°57' E 023°37'0 0.0
2018-Jun-13 06:30N 37°57' E 023°37'0 0.0
2018-Jun-13 06:00N 37°57' E 023°37'1 2.3
2018-Jun-13 05:30N 37°57' E 023°35'1 1.2
2018-Jun-13 05:00N 37°57' E 023°35'1 1.0
2018-Jun-13 04:31N 37°57' E 023°35'1 1.8
2018-Jun-13 04:01N 37°57' E 023°36'0 0.7
2018-Jun-13 03:31N 37°57' E 023°36'2 3.5
2018-Jun-13 03:01N 37°56' E 023°37'0 0.0
2018-Jun-13 02:31N 37°56' E 023°37'0 0.0
2018-Jun-11 10:56N 37°56' E 023°37'2 3.5
2018-Jun-11 10:30N 37°57' E 023°36'0 0.1
2018-Jun-11 10:00N 37°57' E 023°36'0 0.0
2018-Jun-11 09:30N 37°57' E 023°36'0 0.0
2018-Jun-11 09:00N 37°57' E 023°36'0 0.0
2018-Jun-11 08:30N 37°57' E 023°36'0 0.0
2018-Jun-11 08:00N 37°57' E 023°36'0 0.0
2018-Jun-11 07:30N 37°57' E 023°36'0 0.0
2018-Jun-11 07:00N 37°57' E 023°36'0 0.0
2018-Jun-11 06:30N 37°57' E 023°36'0 0.0
2018-Jun-11 06:00N 37°57' E 023°36'1 1.6
2018-Jun-11 05:30N 37°57' E 023°35'0 0.3
2018-Jun-11 05:00N 37°57' E 023°35'0 0.7
2018-Jun-11 04:31N 37°57' E 023°36'1 1.6
2018-Jun-11 04:00N 37°57' E 023°35'1 1.7
2018-Jun-11 03:30N 37°57' E 023°36'2 3.1
2018-Jun-11 03:00N 37°56' E 023°37'0 0.0
2018-Jun-11 02:30N 37°56' E 023°37'0 0.0
2018-Jun-10 10:48N 37°56' E 023°37'0 0.0
2018-Jun-10 10:30N 37°56' E 023°37'2 3.2
2018-Jun-10 10:00N 37°57' E 023°36'1 1.3
2018-Jun-10 09:30N 37°57' E 023°37'0 0.0
2018-Jun-10 09:00N 37°57' E 023°37'0 0.0
2018-Jun-10 08:30N 37°57' E 023°37'0 0.0
2018-Jun-10 08:00N 37°57' E 023°37'0 0.0
2018-Jun-10 07:30N 37°57' E 023°37'0 0.0
2018-Jun-10 07:00N 37°57' E 023°37'0 0.0
2018-Jun-10 06:30N 37°57' E 023°37'0 0.3
2018-Jun-10 06:00N 37°58' E 023°36'0 0.5
2018-Jun-10 05:30N 37°57' E 023°37'1 1.2
2018-Jun-10 05:00N 37°57' E 023°36'1 1.3
2018-Jun-10 04:31N 37°57' E 023°35'2 3.3
2018-Jun-10 04:00N 37°56' E 023°37'1 1.7
2018-Jun-10 03:30N 37°56' E 023°38'0 0.0
2018-Jun-10 03:00N 37°56' E 023°38'  

Dump ship's entire track history